createdAt,value
2023-05-02T00:01:18.850Z,43.85
2023-05-02T00:03:45.969Z,43.63
2023-05-02T00:06:13.069Z,42.35
2023-05-02T00:08:39.868Z,42.52
2023-05-02T00:11:06.560Z,42.36
2023-05-02T00:13:33.165Z,42.90
2023-05-02T00:15:59.856Z,43.28
2023-05-02T00:18:26.482Z,43.05
2023-05-02T00:20:53.054Z,43.12
2023-05-02T00:23:19.711Z,42.91
2023-05-02T00:25:46.614Z,43.27
2023-05-02T00:28:13.985Z,43.44
2023-05-02T00:30:47.422Z,46.94
2023-05-02T00:33:15.910Z,49.08
2023-05-02T00:35:42.540Z,49.66
2023-05-02T00:38:09.542Z,50.46
2023-05-02T00:40:51.310Z,50.30
2023-05-02T00:43:18.394Z,49.53
2023-05-02T00:45:46.489Z,49.99
2023-05-02T00:48:13.791Z,49.91
2023-05-02T00:50:43.641Z,50.04
2023-05-02T00:53:11.088Z,50.44
2023-05-02T00:55:38.095Z,49.79
2023-05-02T00:58:14.584Z,50.19
2023-05-02T01:01:12.429Z,48.96
2023-05-02T01:04:06.153Z,48.22
2023-05-02T01:06:50.797Z,47.60
2023-05-02T01:09:58.765Z,47.23
2023-05-02T01:12:41.885Z,46.77
2023-05-02T01:15:14.572Z,47.88
2023-05-02T01:17:42.645Z,48.56
2023-05-02T01:20:14.594Z,48.04
2023-05-02T01:22:41.830Z,47.63
2023-05-02T01:25:20.797Z,48.19
2023-05-02T01:28:14.856Z,48.46
2023-05-02T01:30:44.790Z,49.08
2023-05-02T01:33:15.358Z,48.85
2023-05-02T01:35:44.163Z,49.22
2023-05-02T01:38:16.096Z,49.60
2023-05-02T01:40:46.031Z,48.59
2023-05-02T01:43:16.601Z,48.96
2023-05-02T01:45:47.351Z,48.99
2023-05-02T01:48:17.913Z,48.78
2023-05-02T01:50:47.818Z,48.64
2023-05-02T01:53:15.516Z,48.35
2023-05-02T01:55:44.967Z,48.82
2023-05-02T01:58:14.214Z,48.90
2023-05-02T02:00:42.055Z,48.98
2023-05-02T02:03:10.525Z,48.42
2023-05-02T02:05:37.846Z,48.50
2023-05-02T02:08:04.875Z,48.57
2023-05-02T02:10:36.436Z,47.86
2023-05-02T02:13:24.566Z,48.16
2023-05-02T02:15:58.113Z,48.20
2023-05-02T02:18:27.834Z,48.06
2023-05-02T02:20:56.043Z,47.70
2023-05-02T02:23:29.021Z,48.41
2023-05-02T02:25:57.109Z,49.21
2023-05-02T02:28:23.922Z,50.24
2023-05-02T02:30:50.844Z,50.83
2023-05-02T02:33:18.667Z,51.43
2023-05-02T02:36:02.165Z,51.97
2023-05-02T02:38:42.263Z,52.75
2023-05-02T02:41:22.450Z,53.07
2023-05-02T02:44:16.874Z,52.71
2023-05-02T02:47:06.861Z,52.07
2023-05-02T02:49:45.888Z,53.48
2023-05-02T02:52:53.695Z,54.41
2023-05-02T02:55:32.004Z,55.26
2023-05-02T02:58:30.837Z,56.21
2023-05-02T03:01:01.772Z,56.86
2023-05-02T03:03:30.186Z,57.08
2023-05-02T03:05:57.440Z,57.25
2023-05-02T03:08:24.878Z,57.98
2023-05-02T03:10:51.651Z,58.40
2023-05-02T03:13:18.397Z,58.88
2023-05-02T03:16:06.806Z,59.00
2023-05-02T03:18:33.839Z,59.49
2023-05-02T03:21:02.982Z,59.73
2023-05-02T03:23:29.830Z,59.61
2023-05-02T03:25:56.512Z,59.86
2023-05-02T03:28:23.165Z,60.33
2023-05-02T03:30:49.816Z,60.41
2023-05-02T03:33:16.630Z,60.69
2023-05-02T03:35:43.327Z,60.81
2023-05-02T03:38:09.929Z,60.17
2023-05-02T03:40:36.564Z,60.29
2023-05-02T03:43:03.201Z,60.20
2023-05-02T03:45:29.891Z,60.33
2023-05-02T03:47:56.548Z,59.84
2023-05-02T03:50:23.596Z,59.62
2023-05-02T03:52:50.588Z,59.85
2023-05-02T03:55:17.240Z,59.82
2023-05-02T03:57:43.954Z,59.82
2023-05-02T04:00:11.289Z,59.85
2023-05-02T04:02:38.323Z,60.07
2023-05-02T04:05:05.511Z,60.37
2023-05-02T04:07:32.230Z,60.50
2023-05-02T04:09:59.269Z,60.63
2023-05-02T04:12:26.292Z,60.83
2023-05-02T04:14:52.898Z,60.44
2023-05-02T04:17:19.644Z,60.90
2023-05-02T04:19:46.326Z,60.72
2023-05-02T04:22:12.966Z,60.84
2023-05-02T04:24:39.579Z,61.06
2023-05-02T04:27:06.212Z,61.25
2023-05-02T04:29:32.895Z,60.66
2023-05-02T04:31:59.558Z,61.64
2023-05-02T04:34:26.292Z,61.66
2023-05-02T04:36:52.882Z,61.94
2023-05-02T04:39:25.573Z,62.39
2023-05-02T04:41:52.276Z,61.80
2023-05-02T04:44:18.870Z,61.86
2023-05-02T04:46:46.272Z,62.00
2023-05-02T04:49:14.862Z,62.19
2023-05-02T04:51:41.690Z,62.19
2023-05-02T04:54:08.390Z,61.89
2023-05-02T04:56:34.957Z,62.10
2023-05-02T04:59:01.633Z,61.83
2023-05-02T05:01:28.426Z,61.93
2023-05-02T05:03:55.700Z,62.04
2023-05-02T05:06:22.897Z,62.39
2023-05-02T05:08:52.746Z,62.43
2023-05-02T05:11:19.408Z,62.43
2023-05-02T05:13:46.389Z,62.90
2023-05-02T05:16:13.496Z,62.61
2023-05-02T05:18:43.274Z,62.48
2023-05-02T05:21:12.823Z,62.54
2023-05-02T05:23:39.601Z,61.43
2023-05-02T05:26:16.679Z,61.75
2023-05-02T05:28:44.058Z,61.13
2023-05-02T05:31:16.015Z,60.67
2023-05-02T05:33:43.913Z,61.63
2023-05-02T05:36:12.817Z,61.57
2023-05-02T05:38:39.721Z,60.81
2023-05-02T05:41:07.931Z,60.21
2023-05-02T05:43:38.375Z,58.90
2023-05-02T05:46:05.410Z,57.56
2023-05-02T05:48:32.021Z,57.09
2023-05-02T05:50:58.674Z,57.61
2023-05-02T05:53:25.811Z,58.15
2023-05-02T05:55:52.402Z,58.40
2023-05-02T05:58:19.067Z,57.30
2023-05-02T06:00:48.134Z,57.22
2023-05-02T06:03:15.069Z,55.65
2023-05-02T06:05:42.337Z,55.25
2023-05-02T06:08:09.093Z,54.75
2023-05-02T06:10:35.759Z,54.27
2023-05-02T06:13:02.366Z,53.25
2023-05-02T06:15:28.963Z,52.96
2023-05-02T06:17:55.821Z,51.84
2023-05-02T06:20:22.463Z,51.27
2023-05-02T06:22:48.920Z,50.46
2023-05-02T06:25:15.510Z,49.29
2023-05-02T06:27:42.270Z,48.87
2023-05-02T06:30:09.358Z,49.23
2023-05-02T06:32:36.077Z,49.63
2023-05-02T06:35:02.854Z,49.27
2023-05-02T06:37:33.933Z,48.45
2023-05-02T06:40:00.953Z,48.51
2023-05-02T06:42:27.730Z,48.19
2023-05-02T06:44:54.338Z,47.34
2023-05-02T06:47:24.533Z,47.35
2023-05-02T06:49:54.260Z,47.70
2023-05-02T06:52:20.918Z,47.46
2023-05-02T06:54:47.620Z,46.97
2023-05-02T06:57:14.356Z,46.10
2023-05-02T06:59:41.094Z,43.48
2023-05-02T07:02:07.728Z,42.24
2023-05-02T07:04:37.263Z,43.05
2023-05-02T07:07:04.187Z,43.26
2023-05-02T07:09:32.738Z,41.92
2023-05-02T07:11:59.343Z,42.31
2023-05-02T07:14:25.944Z,41.90
2023-05-02T07:16:53.726Z,42.28
2023-05-02T07:19:20.511Z,41.68
2023-05-02T07:21:47.212Z,42.60
2023-05-02T07:24:13.888Z,41.26
2023-05-02T07:26:41.122Z,41.12
2023-05-02T07:29:08.838Z,42.33
2023-05-02T07:31:35.436Z,42.36
2023-05-02T07:34:02.088Z,42.69
2023-05-02T07:36:28.689Z,42.51
2023-05-02T07:38:55.725Z,42.07
2023-05-02T07:41:22.356Z,41.82
2023-05-02T07:43:49.039Z,39.91
2023-05-02T07:46:15.718Z,40.04
2023-05-02T07:48:42.978Z,40.73
2023-05-02T07:51:10.819Z,40.61
2023-05-02T07:53:37.425Z,40.81
2023-05-02T07:56:07.026Z,39.54
2023-05-02T07:58:33.804Z,40.53
2023-05-02T08:01:00.685Z,40.45
2023-05-02T08:03:28.360Z,41.15
2023-05-02T08:05:55.063Z,39.82
2023-05-02T08:08:21.801Z,40.49
2023-05-02T08:10:48.501Z,40.06
2023-05-02T08:13:15.100Z,40.85
2023-05-02T08:15:41.741Z,41.67
2023-05-02T08:18:08.523Z,42.08
2023-05-02T08:20:37.504Z,42.27
2023-05-02T08:23:04.123Z,43.51
2023-05-02T08:25:30.775Z,44.56
2023-05-02T08:27:57.473Z,44.89
2023-05-02T08:30:24.614Z,44.68
2023-05-02T08:32:51.298Z,44.63
2023-05-02T08:35:18.129Z,44.57
2023-05-02T08:37:47.596Z,44.63
2023-05-02T08:40:24.672Z,44.77
2023-05-02T08:42:57.521Z,44.90
2023-05-02T08:45:24.863Z,45.03
2023-05-02T08:47:52.735Z,45.15
2023-05-02T08:50:20.592Z,45.46
2023-05-02T08:52:48.915Z,45.39
2023-05-02T08:55:15.864Z,45.55
2023-05-02T08:57:43.720Z,45.55
2023-05-02T09:00:11.563Z,44.23
2023-05-02T09:02:59.451Z,42.96
2023-05-02T09:05:26.340Z,41.97
2023-05-02T09:07:53.054Z,43.08
2023-05-02T09:10:21.728Z,42.61
2023-05-02T09:12:48.540Z,42.08
2023-05-02T09:15:20.583Z,43.06
2023-05-02T09:17:49.083Z,42.33
2023-05-02T09:20:16.939Z,41.91
2023-05-02T09:22:53.125Z,41.04
2023-05-02T09:25:20.797Z,42.11
2023-05-02T09:27:55.317Z,41.07
2023-05-02T09:30:25.477Z,43.68
2023-05-02T09:32:55.658Z,45.46
2023-05-02T09:35:26.186Z,45.69
2023-05-02T09:37:54.786Z,45.30
2023-05-02T09:40:22.207Z,45.03
2023-05-02T09:42:49.091Z,44.92
2023-05-02T09:45:24.748Z,45.46
2023-05-02T09:47:52.429Z,45.93
2023-05-02T09:50:41.389Z,45.70
2023-05-02T09:53:12.193Z,46.18
2023-05-02T09:55:39.831Z,45.46
2023-05-02T09:58:06.853Z,45.46
2023-05-02T10:00:44.387Z,43.25
2023-05-02T10:03:11.527Z,42.34
2023-05-02T10:05:39.202Z,42.35
2023-05-02T10:08:07.631Z,43.51
2023-05-02T10:10:38.008Z,43.10
2023-05-02T10:13:05.917Z,43.21
2023-05-02T10:15:33.968Z,43.01
2023-05-02T10:18:07.402Z,43.74
2023-05-02T10:20:37.308Z,43.67
2023-05-02T10:23:06.139Z,44.04
2023-05-02T10:25:33.483Z,44.31
2023-05-02T10:28:00.334Z,44.39
2023-05-02T10:30:27.196Z,44.07
2023-05-02T10:32:56.565Z,43.74
2023-05-02T10:35:25.828Z,43.54
2023-05-02T10:37:53.645Z,43.97
2023-05-02T10:40:20.477Z,44.09
2023-05-02T10:42:51.341Z,45.23
2023-05-02T10:45:30.273Z,44.29
2023-05-02T10:48:25.454Z,43.79
2023-05-02T10:50:56.283Z,44.33
2023-05-02T10:53:44.903Z,44.64
2023-05-02T10:56:22.022Z,45.21
2023-05-02T10:58:50.728Z,44.51
2023-05-02T11:01:29.721Z,43.63
2023-05-02T11:04:10.384Z,42.52
2023-05-02T11:06:59.277Z,41.20
2023-05-02T11:09:26.788Z,41.47
2023-05-02T11:11:56.541Z,40.75
2023-05-02T11:14:26.180Z,40.89
2023-05-02T11:17:01.703Z,41.16
2023-05-02T11:19:31.203Z,40.81
2023-05-02T11:22:27.134Z,41.58
2023-05-02T11:24:54.465Z,41.14
2023-05-02T11:27:38.587Z,41.18
2023-05-02T11:30:09.800Z,40.70
2023-05-02T11:32:45.733Z,41.28
2023-05-02T11:35:19.525Z,41.46
2023-05-02T11:37:58.894Z,40.60
2023-05-02T11:40:27.209Z,40.63
2023-05-02T11:42:54.600Z,39.76
2023-05-02T11:45:21.702Z,39.63
2023-05-02T11:47:49.576Z,39.95
2023-05-02T11:50:16.947Z,39.25
2023-05-02T11:52:45.438Z,39.77
2023-05-02T11:55:13.753Z,39.50
2023-05-02T11:57:41.069Z,39.04
2023-05-02T12:00:08.321Z,38.88
2023-05-02T12:02:46.139Z,39.19
2023-05-02T12:05:14.271Z,40.74
2023-05-02T12:07:45.925Z,40.20
2023-05-02T12:10:13.856Z,39.43
2023-05-02T12:12:44.100Z,39.52
2023-05-02T12:15:18.286Z,39.72
2023-05-02T12:17:52.338Z,39.78
2023-05-02T12:20:19.316Z,40.87
2023-05-02T12:22:46.746Z,40.90
2023-05-02T12:25:13.891Z,40.62
2023-05-02T12:27:40.648Z,41.20
2023-05-02T12:30:08.858Z,41.59
2023-05-02T12:32:36.719Z,41.25
2023-05-02T12:35:04.063Z,42.08
2023-05-02T12:37:30.801Z,41.04
2023-05-02T12:39:57.499Z,41.97
2023-05-02T12:42:26.085Z,41.39
2023-05-02T12:44:53.621Z,42.21
2023-05-02T12:47:22.730Z,42.15
2023-05-02T12:49:53.189Z,41.47
2023-05-02T12:52:59.192Z,41.47
2023-05-02T12:55:29.429Z,41.74
2023-05-02T12:58:25.548Z,41.47
2023-05-02T13:00:52.281Z,41.55
2023-05-02T13:03:18.954Z,41.36
2023-05-02T13:05:45.696Z,41.33
2023-05-02T13:08:12.341Z,41.08
2023-05-02T13:10:38.993Z,40.80
2023-05-02T13:13:05.673Z,40.61
2023-05-02T13:15:32.546Z,41.10
2023-05-02T13:17:59.259Z,41.05
2023-05-02T13:20:26.251Z,41.28
2023-05-02T13:22:52.867Z,41.84
2023-05-02T13:25:19.438Z,41.32
2023-05-02T13:27:46.228Z,41.14
2023-05-02T13:30:15.064Z,41.31
2023-05-02T13:32:41.807Z,40.74
2023-05-02T13:35:09.541Z,40.79
2023-05-02T13:37:36.290Z,40.23
2023-05-02T13:40:03.079Z,40.56
2023-05-02T13:42:29.921Z,40.67
2023-05-02T13:44:56.559Z,40.61
2023-05-02T13:47:23.470Z,41.33
2023-05-02T13:49:53.306Z,41.58
2023-05-02T13:52:23.031Z,41.85
2023-05-02T13:54:49.612Z,42.26
2023-05-02T13:57:16.285Z,42.30
2023-05-02T13:59:42.900Z,42.77
2023-05-02T14:02:09.655Z,42.79
2023-05-02T14:04:36.487Z,42.68
2023-05-02T14:07:03.100Z,42.67
2023-05-02T14:09:29.755Z,43.03
2023-05-02T14:11:56.711Z,42.60
2023-05-02T14:14:23.290Z,42.75
2023-05-02T14:16:50.570Z,42.41
2023-05-02T14:19:18.099Z,42.51
2023-05-02T14:21:44.694Z,42.77
2023-05-02T14:24:14.697Z,43.27
2023-05-02T14:26:41.292Z,43.14
2023-05-02T14:29:08.715Z,43.08
2023-05-02T14:31:35.721Z,43.14
2023-05-02T14:34:02.849Z,42.96
2023-05-02T14:36:29.504Z,43.19
2023-05-02T14:38:56.121Z,43.13
2023-05-02T14:41:24.139Z,43.11
2023-05-02T14:43:52.119Z,43.81
2023-05-02T14:46:18.764Z,43.76
2023-05-02T14:48:45.612Z,43.91
2023-05-02T14:51:12.229Z,44.59
2023-05-02T14:53:39.332Z,44.86
2023-05-02T14:56:06.317Z,45.07
2023-05-02T14:58:32.979Z,45.39
2023-05-02T15:00:59.672Z,45.82
2023-05-02T15:03:26.529Z,46.22
2023-05-02T15:05:53.365Z,45.89
2023-05-02T15:08:19.929Z,46.16
2023-05-02T15:10:46.625Z,46.58
2023-05-02T15:13:13.463Z,46.60
2023-05-02T15:15:40.159Z,46.97
2023-05-02T15:18:06.856Z,47.04
2023-05-02T15:20:33.505Z,47.54
2023-05-02T15:23:03.453Z,47.40
2023-05-02T15:25:31.018Z,47.43
2023-05-02T15:27:57.691Z,47.46
2023-05-02T15:30:24.996Z,48.17
2023-05-02T15:32:51.735Z,48.39
2023-05-02T15:35:18.404Z,48.58
2023-05-02T15:37:44.991Z,48.41
2023-05-02T15:40:12.199Z,48.64
2023-05-02T15:42:38.812Z,49.01
2023-05-02T15:45:06.232Z,48.95
2023-05-02T15:47:32.891Z,48.82
2023-05-02T15:50:00.291Z,48.90
2023-05-02T15:52:27.181Z,49.01
2023-05-02T15:54:56.146Z,49.69
2023-05-02T15:57:23.096Z,49.38
2023-05-02T15:59:50.207Z,50.20
2023-05-02T16:02:16.908Z,50.53
2023-05-02T16:04:46.566Z,50.75
2023-05-02T16:07:13.253Z,50.73
2023-05-02T16:09:40.297Z,51.04
2023-05-02T16:12:07.389Z,50.88
2023-05-02T16:14:34.913Z,52.02
2023-05-02T16:17:01.792Z,51.57
2023-05-02T16:19:28.445Z,51.84
2023-05-02T16:21:55.078Z,51.30
2023-05-02T16:24:21.802Z,51.62
2023-05-02T16:26:48.498Z,51.70
2023-05-02T16:29:15.102Z,50.34
2023-05-02T16:31:44.220Z,50.38
2023-05-02T16:34:11.298Z,49.67
2023-05-02T16:36:37.914Z,49.42
2023-05-02T16:39:04.602Z,49.64
2023-05-02T16:41:31.310Z,49.77
2023-05-02T16:43:57.944Z,49.67
2023-05-02T16:46:24.648Z,49.83
2023-05-02T16:48:51.277Z,49.70
2023-05-02T16:51:17.942Z,48.59
2023-05-02T16:53:46.303Z,48.99
2023-05-02T16:56:13.257Z,48.87
2023-05-02T16:58:39.905Z,49.24
2023-05-02T17:01:06.692Z,49.35
2023-05-02T17:03:33.378Z,49.06
2023-05-02T17:06:01.980Z,49.40
2023-05-02T17:08:29.079Z,49.74
2023-05-02T17:10:56.289Z,49.41
2023-05-02T17:13:22.997Z,49.29
2023-05-02T17:15:50.146Z,49.91
2023-05-02T17:18:16.882Z,49.62
2023-05-02T17:20:45.994Z,49.62
2023-05-02T17:23:12.929Z,50.20
2023-05-02T17:25:39.543Z,50.16
2023-05-02T17:28:06.529Z,50.12
2023-05-02T17:30:34.090Z,50.08
2023-05-02T17:33:00.727Z,50.10
2023-05-02T17:35:27.559Z,50.07
2023-05-02T17:37:55.409Z,49.99
2023-05-02T17:40:22.093Z,50.11
2023-05-02T17:42:49.082Z,49.92
2023-05-02T17:45:19.095Z,50.68
2023-05-02T17:47:45.857Z,50.28
2023-05-02T17:50:14.267Z,51.07
2023-05-02T17:52:41.063Z,51.09
2023-05-02T17:55:08.804Z,51.23
2023-05-02T17:57:37.607Z,51.12
2023-05-02T18:00:07.735Z,51.59
2023-05-02T18:02:37.137Z,51.73
2023-05-02T18:05:05.009Z,51.59
2023-05-02T18:07:31.900Z,52.58
2023-05-02T18:10:03.735Z,52.48
2023-05-02T18:12:32.458Z,52.83
2023-05-02T18:14:59.161Z,53.16
2023-05-02T18:17:27.046Z,53.80
2023-05-02T18:19:53.827Z,53.59
2023-05-02T18:22:21.762Z,52.68
2023-05-02T18:24:49.839Z,53.84
2023-05-02T18:27:17.785Z,53.43
2023-05-02T18:29:44.477Z,53.68
2023-05-02T18:32:11.248Z,53.52
2023-05-02T18:34:39.072Z,54.20
2023-05-02T18:37:05.945Z,54.52
2023-05-02T18:39:33.764Z,54.67
2023-05-02T18:42:04.489Z,54.25
2023-05-02T18:44:33.902Z,55.42
2023-05-02T18:47:01.149Z,55.95
2023-05-02T18:49:27.821Z,56.22
2023-05-02T18:51:57.356Z,56.00
2023-05-02T18:54:24.409Z,56.42
2023-05-02T18:56:51.069Z,56.25
2023-05-02T18:59:20.302Z,56.67
2023-05-02T19:01:50.074Z,56.93
2023-05-02T19:04:16.861Z,57.62
2023-05-02T19:06:43.712Z,58.24
2023-05-02T19:09:12.498Z,58.70
2023-05-02T19:11:39.948Z,58.63
2023-05-02T19:14:06.664Z,59.09
2023-05-02T19:16:35.031Z,59.01
2023-05-02T19:19:02.254Z,59.34
2023-05-02T19:21:28.941Z,60.13
2023-05-02T19:23:56.703Z,60.40
2023-05-02T19:26:25.201Z,61.40
2023-05-02T19:28:51.987Z,61.83
2023-05-02T19:31:20.427Z,65.46
2023-05-02T19:33:51.996Z,66.09
2023-05-02T19:36:19.895Z,65.13
2023-05-02T19:38:58.304Z,66.15
2023-05-02T19:41:28.061Z,68.80
2023-05-02T19:43:58.998Z,68.06
2023-05-02T19:46:30.322Z,68.89
2023-05-02T19:48:57.110Z,71.84
2023-05-02T19:51:25.790Z,72.16
2023-05-02T19:53:53.877Z,75.01
2023-05-02T19:56:21.628Z,73.37
2023-05-02T19:58:48.213Z,72.82
2023-05-02T20:01:15.024Z,75.15
2023-05-02T20:03:41.805Z,74.31
2023-05-02T20:06:08.685Z,74.31
2023-05-02T20:08:35.564Z,75.73
2023-05-02T20:11:02.332Z,74.90
2023-05-02T20:13:29.023Z,77.31
2023-05-02T20:15:55.646Z,77.32
2023-05-02T20:18:22.374Z,78.39
2023-05-02T20:20:49.021Z,78.25
2023-05-02T20:23:16.152Z,76.53
2023-05-02T20:25:45.689Z,76.81
2023-05-02T20:28:12.287Z,76.39
2023-05-02T20:30:43.468Z,77.29
2023-05-02T20:33:16.159Z,76.61
2023-05-02T20:35:44.173Z,78.50
2023-05-02T20:38:11.272Z,79.33
2023-05-02T20:40:40.075Z,79.96
2023-05-02T20:43:06.805Z,80.36
2023-05-02T20:45:33.442Z,78.91
2023-05-02T20:48:00.150Z,80.45
2023-05-02T20:50:27.214Z,79.59
2023-05-02T20:52:54.470Z,79.04
2023-05-02T20:55:23.067Z,79.06
2023-05-02T20:57:53.508Z,78.28
2023-05-02T21:00:23.781Z,78.39
2023-05-02T21:02:50.677Z,78.97
2023-05-02T21:05:17.500Z,79.11
2023-05-02T21:07:44.887Z,80.84
2023-05-02T21:10:15.083Z,80.25
2023-05-02T21:12:41.689Z,82.29
2023-05-02T21:15:08.534Z,82.43
2023-05-02T21:17:35.164Z,83.60
2023-05-02T21:20:02.186Z,82.41
2023-05-02T21:22:29.187Z,81.46
2023-05-02T21:27:23.121Z,82.68
2023-05-02T21:29:49.979Z,82.67
2023-05-02T21:32:16.752Z,82.98
2023-05-02T21:34:43.410Z,82.81
2023-05-02T21:37:10.015Z,83.74
2023-05-02T21:39:38.632Z,83.06
2023-05-02T21:42:05.684Z,83.46
2023-05-02T21:44:32.279Z,82.73
2023-05-02T21:46:59.010Z,83.97
2023-05-02T21:49:25.774Z,83.76
2023-05-02T21:51:52.388Z,85.11
2023-05-02T21:54:18.958Z,85.69
2023-05-02T21:56:45.537Z,86.07
2023-05-02T21:59:12.154Z,84.73
2023-05-02T22:01:38.816Z,85.36
2023-05-02T22:04:05.697Z,87.01
2023-05-02T22:06:33.548Z,86.63
2023-05-02T22:09:00.261Z,86.65
2023-05-02T22:11:28.628Z,88.43
2023-05-02T22:13:55.305Z,86.68
2023-05-02T22:16:22.105Z,87.04
2023-05-02T22:18:49.689Z,87.43
2023-05-02T22:21:16.386Z,89.37
2023-05-02T22:23:43.041Z,88.77
2023-05-02T22:26:09.730Z,88.51
2023-05-02T22:28:39.268Z,88.69
2023-05-02T22:31:06.035Z,89.70
2023-05-02T22:33:32.771Z,90.16
2023-05-02T22:35:59.445Z,89.60
2023-05-02T22:38:28.745Z,90.26
2023-05-02T22:40:55.444Z,89.78
2023-05-02T22:43:22.089Z,89.32
2023-05-02T22:45:51.321Z,89.42
2023-05-02T22:48:18.278Z,90.27
2023-05-02T22:50:48.805Z,90.01
2023-05-02T22:53:15.776Z,89.85
2023-05-02T22:55:42.662Z,88.62
2023-05-02T22:58:09.287Z,88.21
2023-05-02T23:00:36.595Z,87.98
2023-05-02T23:03:06.119Z,87.78
2023-05-02T23:05:32.803Z,89.04
2023-05-02T23:07:59.414Z,88.54
2023-05-02T23:10:26.102Z,87.71
2023-05-02T23:12:52.732Z,88.90
2023-05-02T23:15:19.527Z,90.46
2023-05-02T23:17:46.166Z,90.63
2023-05-02T23:20:12.946Z,89.99
2023-05-02T23:22:46.258Z,89.99
2023-05-02T23:25:15.190Z,90.25
2023-05-02T23:27:41.931Z,90.13
2023-05-02T23:30:11.669Z,89.44
2023-05-02T23:32:39.519Z,89.59
2023-05-02T23:35:06.729Z,89.13
2023-05-02T23:37:33.775Z,88.14
2023-05-02T23:40:01.123Z,87.19
2023-05-02T23:42:29.909Z,87.78
2023-05-02T23:44:57.928Z,86.85
2023-05-02T23:47:27.166Z,87.58
2023-05-02T23:49:54.182Z,87.94
2023-05-02T23:52:21.109Z,86.82
2023-05-02T23:54:47.876Z,87.28
2023-05-02T23:57:14.498Z,87.53
2023-05-02T23:59:41.218Z,88.30
